LFCK/DCM METAR and TAF weather

Enter ICAO airport designator
Station Type Date Time Source
LFCK METAR 2021/09/28 05:00 UTC NOAA

LFCK 280500Z AUTO 23002KT CAVOK 14/13 Q1024


Station Type Date Time Source
LFCK Decoded METAR 2021/09/28 05:00 UTC NOAA

Station name not available
Sep 28, 2021 - 01:00 AM EDT / 2021.09.28 0500 UTC
Wind: from the SW (230 degrees) at 2 MPH (2 KT):0
Visibility: greater than 7 mile(s):0
Temperature: 57 F (14 C)
Dew Point: 55 F (13 C)
Relative Humidity: 93%
Pressure (altimeter): 30.24 in. Hg (1024 hPa)
ob: LFCK 280500Z AUTO 23002KT CAVOK 14/13 Q1024
cycle: 5

Station Type Date Time Source
LFCK TAF UTC NOAA

Error!

Example: see airport list